Time;durP1;ratioP1;P1;durP2;ratioP2;P2;SDS_P1;SDS_P2;PMS_P1;PMS_P2;Temp;Humidity;BMP_temperature;BMP_pressure;BME280_temperature;BME280_humidity;BME280_pressure;Samples;Min_cycle;Max_cycle;Signal;HPM_P1;HPM_P2
2022/03/23 00:01:00;;;;;;;26.40;13.80;;;;;;;2.60;56.98;101144.36;109082;1279;23517;-60
2022/03/23 00:03:29;;;;;;;31.30;13.90;;;;;;;2.57;57.15;101142.83;109030;1277;139495;-60
2022/03/23 00:05:57;;;;;;;29.30;14.30;;;;;;;2.54;57.36;101141.51;109064;1277;23154;-60
2022/03/23 00:08:27;;;;;;;25.20;12.60;;;;;;;2.50;57.36;101137.92;109096;1277;22476;-60
2022/03/23 00:11:17;;;;;;;25.70;12.70;;;;;;;2.45;57.68;101137.02;109011;1277;137268;-60
2022/03/23 00:13:46;;;;;;;24.90;12.40;;;;;;;2.42;57.40;101137.59;109079;1277;22426;-60
2022/03/23 00:16:37;;;;;;;22.60;12.70;;;;;;;2.38;57.72;101133.48;106345;1277;138874;-60
2022/03/23 00:19:09;;;;;;;28.70;13.30;;;;;;;2.33;57.79;101135.14;109126;1277;22534;-60
2022/03/23 00:21:38;;;;;;;26.20;13.00;;;;;;;2.28;57.75;101131.45;109066;1277;138091;-60
2022/03/23 00:24:06;;;;;;;28.60;12.80;;;;;;;2.23;58.26;101129.23;109124;1277;23234;-60
2022/03/23 00:26:46;;;;;;;23.10;11.70;;;;;;;2.19;58.34;101126.09;109093;1277;22399;-60
2022/03/23 00:29:15;;;;;;;28.50;14.00;;;;;;;2.15;58.44;101120.59;109001;1277;138429;-60
2022/03/23 00:31:43;;;;;;;32.80;16.40;;;;;;;2.12;58.47;101119.47;108986;1279;22477;-60
2022/03/23 00:34:11;;;;;;;34.70;15.80;;;;;;;2.11;58.68;101115.27;108997;1277;137533;-60
2022/03/23 00:36:40;;;;;;;47.50;19.40;;;;;;;2.12;59.00;101112.88;109073;1277;22400;-60
2022/03/23 00:39:08;;;;;;;61.70;30.20;;;;;;;2.13;58.89;101110.98;108995;1277;137773;-60
2022/03/23 00:41:37;;;;;;;68.50;34.70;;;;;;;2.15;58.90;101108.23;109136;1277;22403;-60
2022/03/23 00:44:07;;;;;;;64.20;32.50;;;;;;;2.19;59.03;101104.95;109139;1277;23198;-60
2022/03/23 00:46:36;;;;;;;63.20;31.30;;;;;;;2.21;58.90;101100.02;106445;1277;137530;-60
2022/03/23 00:49:05;;;;;;;70.60;33.80;;;;;;;2.21;58.79;101100.96;109150;1277;22418;-60
2022/03/23 00:51:34;;;;;;;69.50;34.70;;;;;;;2.20;59.11;101102.33;108984;1277;139847;-60
2022/03/23 00:54:04;;;;;;;79.80;37.20;;;;;;;2.18;59.09;101098.95;109128;1277;22496;-60
2022/03/23 00:56:34;;;;;;;66.00;34.10;;;;;;;2.15;58.98;101099.15;109153;1277;22499;-60
2022/03/23 00:59:07;;;;;;;69.40;35.00;;;;;;;2.11;59.12;101093.02;108903;1277;138298;-60
2022/03/23 01:01:36;;;;;;;70.40;33.40;;;;;;;2.08;59.29;101094.11;109147;1277;23510;-60
2022/03/23 01:04:06;;;;;;;72.60;33.80;;;;;;;2.06;59.52;101092.90;109010;1277;137688;-60
2022/03/23 01:06:48;;;;;;;60.20;28.10;;;;;;;2.02;59.54;101087.74;109029;1277;22501;-60
2022/03/23 01:09:16;;;;;;;47.30;24.50;;;;;;;1.98;59.51;101086.57;108868;1279;137703;-60
2022/03/23 01:11:51;;;;;;;46.10;22.90;;;;;;;1.93;59.57;101083.72;109100;1277;23203;-60
2022/03/23 01:14:23;;;;;;;40.30;20.70;;;;;;;1.90;59.82;101079.42;109070;1278;23690;-60
2022/03/23 01:16:56;;;;;;;37.70;20.90;;;;;;;1.84;59.75;101082.23;105769;1278;138618;-59
2022/03/23 01:19:27;;;;;;;38.10;18.80;;;;;;;1.79;59.92;101077.02;109053;1277;23377;-60
2022/03/23 01:21:56;;;;;;;34.20;17.50;;;;;;;1.76;60.22;101075.88;108917;1277;139473;-60
2022/03/23 01:24:24;;;;;;;31.60;17.40;;;;;;;1.73;60.44;101072.78;109011;1277;22442;-60
2022/03/23 01:26:53;;;;;;;30.60;15.70;;;;;;;1.71;60.23;101066.75;108967;1276;138264;-60
2022/03/23 01:29:22;;;;;;;35.60;15.60;;;;;;;1.69;60.35;101066.63;109243;1277;22394;-60
2022/03/23 01:31:50;;;;;;;30.90;16.00;;;;;;;1.66;60.45;101065.87;109267;1274;22268;-60
2022/03/23 01:34:18;;;;;;;29.50;15.30;;;;;;;1.63;60.47;101065.73;108953;1277;138033;-60
2022/03/23 01:36:50;;;;;;;31.10;15.10;;;;;;;1.60;60.50;101065.57;109193;1276;23413;-60
2022/03/23 01:39:18;;;;;;;36.30;15.60;;;;;;;1.58;60.80;101063.50;109109;1277;138204;-60
2022/03/23 01:41:46;;;;;;;31.30;15.30;;;;;;;1.56;60.62;101056.75;109070;1277;22402;-60
2022/03/23 01:44:20;;;;;;;29.40;15.70;;;;;;;1.55;60.50;101057.04;109063;1278;22555;-60
2022/03/23 01:47:07;;;;;;;33.70;15.90;;;;;;;1.53;60.56;101055.73;106123;1277;138646;-60
2022/03/23 01:49:40;;;;;;;36.10;17.00;;;;;;;1.53;60.74;101050.76;109167;1277;22443;-60
2022/03/23 01:52:10;;;;;;;30.20;16.30;;;;;;;1.53;60.56;101047.77;109035;1277;137905;-60
2022/03/23 01:54:39;;;;;;;35.70;17.40;;;;;;;1.52;60.70;101050.65;109140;1277;22425;-60
2022/03/23 01:57:09;;;;;;;38.10;16.70;;;;;;;1.53;60.75;101042.39;108913;1279;138053;-60
2022/03/23 01:59:39;;;;;;;32.20;15.10;;;;;;;1.53;60.63;101039.88;109001;1279;22402;-60
2022/03/23 02:02:28;;;;;;;39.90;16.70;;;;;;;1.52;60.68;101043.33;108975;1277;22517;-60
2022/03/23 02:05:02;;;;;;;34.60;16.10;;;;;;;1.51;61.03;101040.94;108840;1279;138438;-60
2022/03/23 02:07:30;;;;;;;41.30;16.00;;;;;;;1.49;60.81;101035.21;109023;1279;22464;-60
2022/03/23 02:09:59;;;;;;;39.50;16.50;;;;;;;1.46;60.73;101035.08;108917;1277;138700;-60
2022/03/23 02:13:00;;;;;;;29.30;15.30;;;;;;;1.41;61.14;101034.30;109007;1277;22449;-60
2022/03/23 02:15:29;;;;;;;34.70;15.60;;;;;;;1.39;61.05;101033.08;108874;1279;138935;-60
2022/03/23 02:17:58;;;;;;;32.80;15.30;;;;;;;1.36;61.06;101025.36;109006;1279;23199;-60
2022/03/23 02:20:26;;;;;;;32.10;15.80;;;;;;;1.33;61.10;101026.59;108939;1279;22440;-60
2022/03/23 02:22:57;;;;;;;28.30;14.00;;;;;;;1.30;61.29;101022.59;108776;1279;138145;-60
2022/03/23 02:25:27;;;;;;;27.00;13.50;;;;;;;1.27;61.31;101021.25;109077;1279;22463;-60
2022/03/23 02:27:55;;;;;;;31.50;14.10;;;;;;;1.24;61.64;101021.96;108956;1279;137785;-60
2022/03/23 02:30:23;;;;;;;30.40;13.80;;;;;;;1.23;61.49;101022.59;109044;1278;22479;-60
2022/03/23 02:32:51;;;;;;;32.20;14.00;;;;;;;1.20;61.64;101022.17;109062;1278;22438;-60
2022/03/23 02:35:20;;;;;;;29.90;13.90;;;;;;;1.19;61.89;101021.77;108953;1278;137373;-60
2022/03/23 02:37:48;;;;;;;26.30;13.30;;;;;;;1.17;61.86;101020.17;109081;1278;22430;-60
2022/03/23 02:40:17;;;;;;;26.00;14.10;;;;;;;1.13;61.90;101019.58;108952;1279;138067;-60
2022/03/23 02:42:45;;;;;;;28.60;14.30;;;;;;;1.10;62.07;101018.80;109060;1278;22422;-60
2022/03/23 02:45:14;;;;;;;26.00;13.10;;;;;;;1.07;62.13;101017.67;108938;1279;139812;-60
2022/03/23 02:47:42;;;;;;;28.10;12.70;;;;;;;1.04;62.09;101014.58;109059;1278;23598;-61
2022/03/23 02:50:11;;;;;;;24.50;13.30;;;;;;;1.01;62.27;101012.14;109060;1279;22466;-60
2022/03/23 03:01:52;;;;;;;30.90;13.30;;;;;;;1.00;62.44;101010.15;109014;1277;137628;-60
2022/03/23 03:03:58;;;;;;;25.50;11.70;;;;;;;0.92;62.49;101000.42;108978;1278;138843;-60
2022/03/23 03:06:26;;;;;;;29.10;12.60;;;;;;;0.89;62.28;101004.20;109080;1277;22507;-60
2022/03/23 03:09:19;;;;;;;26.60;14.20;;;;;;;0.86;62.49;101006.23;108894;1279;137998;-60
2022/03/23 03:11:48;;;;;;;26.30;13.50;;;;;;;0.86;62.66;101004.53;109085;1277;22571;-60
2022/03/23 03:14:17;;;;;;;24.00;12.90;;;;;;;0.84;62.48;101002.55;109158;1277;22494;-60
2022/03/23 03:16:46;;;;;;;31.60;15.70;;;;;;;0.84;62.53;101003.11;108998;1278;138406;-60
2022/03/23 03:19:14;;;;;;;28.30;13.60;;;;;;;0.84;62.74;101005.63;109134;1277;22429;-60
2022/03/23 03:21:43;;;;;;;30.30;15.00;;;;;;;0.84;62.84;101003.08;108992;1278;137586;-60
2022/03/23 03:24:11;;;;;;;30.20;14.90;;;;;;;0.85;62.75;101002.76;109158;1277;22416;-60
2022/03/23 03:26:39;;;;;;;39.30;19.20;;;;;;;0.86;62.70;101001.27;109165;1277;22399;-60
2022/03/23 03:29:08;;;;;;;38.30;16.70;;;;;;;0.87;62.78;101000.80;109044;1277;138052;-60
2022/03/23 03:31:36;;;;;;;35.20;16.30;;;;;;;0.87;62.48;100994.77;109164;1277;22517;-60
2022/03/23 03:34:04;;;;;;;39.70;17.80;;;;;;;0.85;62.49;100990.67;108974;1278;138604;-60
2022/03/23 03:36:34;;;;;;;40.70;17.80;;;;;;;0.84;62.33;100992.67;109163;1277;22433;-60
2022/03/23 03:39:05;;;;;;;42.60;19.40;;;;;;;0.83;62.36;100992.27;109050;1277;140000;-60
2022/03/23 03:41:34;;;;;;;46.20;19.80;;;;;;;0.84;62.33;100989.02;109161;1277;22299;-60
2022/03/23 03:44:08;;;;;;;43.40;19.20;;;;;;;0.82;62.36;100990.25;109160;1277;23503;-60
2022/03/23 03:46:39;;;;;;;46.50;21.30;;;;;;;0.81;62.39;100992.66;108984;1279;138089;-60
2022/03/23 03:49:07;;;;;;;41.30;20.00;;;;;;;0.79;62.37;100989.52;109142;1277;22406;-60
2022/03/23 03:51:36;;;;;;;44.90;20.30;;;;;;;0.76;62.19;100991.64;108979;1277;139519;-60
2022/03/23 03:54:05;;;;;;;47.40;21.60;;;;;;;0.74;62.60;100992.70;109084;1277;23953;-60
2022/03/23 03:56:34;;;;;;;51.90;21.40;;;;;;;0.71;62.43;100993.20;109066;1279;22402;-60
2022/03/23 03:59:09;;;;;;;43.10;20.40;;;;;;;0.67;62.79;100994.65;109067;1277;138357;-60
2022/03/23 04:01:38;;;;;;;46.90;21.90;;;;;;;0.66;62.99;100995.48;109158;1277;22406;-60
2022/03/23 04:04:06;;;;;;;41.40;20.50;;;;;;;0.66;62.92;100995.68;108973;1279;139473;-60
2022/03/23 04:06:35;;;;;;;47.70;21.70;;;;;;;0.65;63.34;100990.98;109152;1277;22404;-60
2022/03/23 04:09:23;;;;;;;49.70;23.40;;;;;;;0.66;63.16;100988.48;109028;1277;138037;-60
2022/03/23 04:11:52;;;;;;;47.70;23.10;;;;;;;0.65;62.86;100985.35;109145;1278;22564;-60
2022/03/23 04:14:40;;;;;;;54.50;27.20;;;;;;;0.65;63.16;100981.83;109115;1278;22546;-60
2022/03/23 04:17:08;;;;;;;99.90;45.90;;;;;;;0.63;63.03;100981.48;109077;1277;137422;-60
2022/03/23 04:19:56;;;;;;;90.70;45.20;;;;;;;0.64;63.16;100981.21;109147;1277;22239;-60
2022/03/23 04:22:24;;;;;;;107.40;50.80;;;;;;;0.67;63.27;100980.36;108961;1279;139056;-60
2022/03/23 04:24:52;;;;;;;105.40;49.20;;;;;;;0.71;62.99;100979.22;109193;1277;22463;-60
2022/03/23 04:27:20;;;;;;;91.00;46.00;;;;;;;0.76;62.72;100976.19;109060;1277;137945;-60
2022/03/23 04:29:49;;;;;;;92.20;43.70;;;;;;;0.81;63.12;100977.80;109154;1277;22433;-60
2022/03/23 04:32:17;;;;;;;88.70;43.20;;;;;;;0.87;62.81;100978.98;109162;1277;22519;-60
2022/03/23 04:34:46;;;;;;;87.50;40.80;;;;;;;0.94;62.98;100979.45;109047;1278;139234;-60
2022/03/23 04:37:14;;;;;;;77.60;41.70;;;;;;;1.01;63.06;100978.91;109158;1277;22384;-60
2022/03/23 04:39:43;;;;;;;87.30;40.70;;;;;;;1.10;62.65;100979.63;108959;1279;137429;-60
2022/03/23 04:42:12;;;;;;;80.40;37.80;;;;;;;1.21;62.66;100984.19;109196;1277;23522;-60
2022/03/23 04:44:42;;;;;;;75.30;35.50;;;;;;;1.33;62.62;100983.20;109111;1277;22496;-60
2022/03/23 04:47:10;;;;;;;67.70;32.50;;;;;;;1.48;62.15;100984.35;108968;1278;138354;-60
2022/03/23 04:49:39;;;;;;;58.50;29.30;;;;;;;1.65;61.99;100979.95;109071;1278;22407;-60
2022/03/23 04:52:07;;;;;;;49.90;25.80;;;;;;;1.87;61.78;100981.05;109043;1277;138429;-60
2022/03/23 04:54:35;;;;;;;52.90;27.60;;;;;;;2.09;61.29;100981.77;109171;1277;22259;-60
2022/03/23 04:57:03;;;;;;;48.60;24.80;;;;;;;2.32;61.33;100978.79;109035;1277;137820;-60
2022/03/23 04:59:33;;;;;;;46.90;22.40;;;;;;;2.55;60.82;100979.53;109103;1277;22542;-60
2022/03/23 05:02:02;;;;;;;44.50;22.30;;;;;;;2.82;60.35;100982.31;109202;1277;22443;-60
2022/03/23 05:04:31;;;;;;;56.50;25.90;;;;;;;3.06;59.85;100985.11;108978;1278;138406;-60
2022/03/23 05:09:06;;;;;;;61.10;25.90;;;;;;;3.46;58.73;100979.28;101692;1311;545768;-59
2022/03/23 05:11:54;;;;;;;48.50;25.50;;;;;;;3.67;58.22;100975.80;108193;1286;22516;-60
2022/03/23 05:14:24;;;;;;;57.40;27.70;;;;;;;3.84;57.14;100972.19;108199;1287;22407;-60
2022/03/23 05:17:11;;;;;;;71.50;30.40;;;;;;;3.99;56.37;100977.08;108072;1287;138446;-60
2022/03/23 05:19:41;;;;;;;84.80;34.60;;;;;;;4.09;55.83;100976.98;108230;1286;23496;-60
2022/03/23 05:22:29;;;;;;;76.90;34.40;;;;;;;4.18;55.24;100971.93;108064;1285;157514;-60
2022/03/23 05:24:58;;;;;;;62.90;30.20;;;;;;;4.26;55.05;100975.98;108390;1285;22445;-60
2022/03/23 05:27:33;;;;;;;65.20;29.80;;;;;;;4.33;54.97;100972.77;108576;1282;137249;-60
2022/03/23 05:30:03;;;;;;;65.60;30.10;;;;;;;4.41;54.60;100972.24;108588;1283;22428;-60
2022/03/23 05:32:31;;;;;;;54.00;27.50;;;;;;;4.48;54.30;100971.86;108655;1283;22577;-60
2022/03/23 05:34:59;;;;;;;57.80;27.00;;;;;;;4.57;54.19;100971.52;108433;1283;137397;-59
2022/03/23 05:37:32;;;;;;;61.80;30.60;;;;;;;4.66;53.78;100970.19;108545;1283;23426;-60
2022/03/23 05:40:04;;;;;;;58.50;29.70;;;;;;;4.73;53.79;100968.94;108357;1284;138494;-60
2022/03/23 05:42:32;;;;;;;50.90;26.80;;;;;;;4.80;53.49;100968.11;108527;1283;22410;-60
2022/03/23 05:45:01;;;;;;;51.10;27.20;;;;;;;4.86;53.61;100967.72;108984;1278;138804;-60
2022/03/23 05:47:29;;;;;;;48.40;25.40;;;;;;;4.91;53.31;100968.86;109165;1277;22397;-59
2022/03/23 05:49:58;;;;;;;53.90;26.60;;;;;;;4.98;53.53;100967.27;109117;1277;22544;-60
2022/03/23 05:52:26;;;;;;;54.90;27.20;;;;;;;5.06;53.46;100962.42;109049;1278;138826;-60
2022/03/23 05:54:54;;;;;;;58.20;29.40;;;;;;;5.11;53.41;100963.17;109157;1277;22603;-60
2022/03/23 05:57:22;;;;;;;61.80;31.20;;;;;;;5.17;53.20;100961.85;104906;1279;138393;-60
2022/03/23 05:59:51;;;;;;;53.10;29.90;;;;;;;5.24;53.20;100958.52;109100;1279;23178;-61
2022/03/23 06:02:20;;;;;;;66.20;35.00;;;;;;;5.32;52.64;100960.17;109022;1279;22399;-61
2022/03/23 06:04:48;;;;;;;60.80;34.70;;;;;;;5.42;52.38;100963.73;109016;1277;138549;-61
2022/03/23 06:07:17;;;;;;;66.20;37.40;;;;;;;5.49;52.21;100957.92;109123;1278;22493;-61
2022/03/23 06:09:46;;;;;;;66.20;36.00;;;;;;;5.57;52.24;100955.52;109032;1277;137706;-61
2022/03/23 06:12:14;;;;;;;78.10;42.40;;;;;;;5.67;51.91;100957.66;109133;1277;22485;-58
2022/03/23 06:14:43;;;;;;;73.30;42.70;;;;;;;5.73;51.51;100956.37;109122;1277;23503;-59
2022/03/23 06:17:31;;;;;;;72.30;42.00;;;;;;;5.80;51.77;100952.77;109015;1278;137815;-59
2022/03/23 06:20:05;;;;;;;74.50;42.30;;;;;;;5.88;51.64;100949.39;109120;1278;22427;-59
2022/03/23 06:22:53;;;;;;;80.60;41.90;;;;;;;5.98;51.39;100947.92;108959;1278;137174;-60
2022/03/23 06:25:21;;;;;;;71.60;41.60;;;;;;;6.05;51.34;100948.94;109098;1278;22404;-59
2022/03/23 06:27:50;;;;;;;90.60;47.20;;;;;;;6.12;50.99;100942.13;108996;1278;137965;-59
2022/03/23 06:30:18;;;;;;;89.70;47.00;;;;;;;6.17;50.97;100946.14;109080;1278;23315;-59
2022/03/23 06:32:46;;;;;;;81.40;47.60;;;;;;;6.23;50.99;100944.31;109090;1279;22236;-59
2022/03/23 06:35:16;;;;;;;85.60;48.30;;;;;;;6.28;50.28;100944.40;109029;1278;138291;-60
2022/03/23 06:37:44;;;;;;;90.00;54.40;;;;;;;6.34;50.55;100943.41;109106;1278;22479;-60
2022/03/23 06:40:12;;;;;;;98.20;57.10;;;;;;;6.41;50.43;100942.89;109003;1277;137888;-61
2022/03/23 06:42:45;;;;;;;100.40;59.10;;;;;;;6.49;50.13;100944.90;109121;1278;23077;-61
2022/03/23 06:45:13;;;;;;;105.30;63.20;;;;;;;6.57;50.33;100942.64;108998;1278;138344;-61
2022/03/23 06:47:41;;;;;;;104.30;59.80;;;;;;;6.65;50.04;100943.14;109100;1278;23692;-61
2022/03/23 06:50:09;;;;;;;104.10;61.00;;;;;;;6.73;49.96;100937.30;109138;1277;22432;-61
2022/03/23 06:52:38;;;;;;;106.80;63.80;;;;;;;6.81;49.35;100937.84;108991;1279;137898;-61
2022/03/23 06:55:07;;;;;;;107.40;61.40;;;;;;;6.90;49.35;100935.23;109102;1278;22436;-61
2022/03/23 06:57:36;;;;;;;107.00;64.70;;;;;;;7.00;49.12;100937.20;108958;1278;137699;-61
2022/03/23 07:00:13;;;;;;;105.90;64.00;;;;;;;7.09;48.73;100937.29;109085;1278;22577;-61
2022/03/23 07:02:48;;;;;;;109.50;65.80;;;;;;;7.20;48.88;100932.98;109125;1278;22429;-59
2022/03/23 07:05:17;;;;;;;103.50;63.20;;;;;;;7.30;48.80;100931.90;108984;1278;137129;-59
2022/03/23 07:10:34;;;;;;;111.10;65.50;;;;;;;7.53;48.79;100927.64;109007;1278;137457;-60
2022/03/23 07:13:02;;;;;;;108.00;65.70;;;;;;;7.63;48.62;100929.88;109091;1279;22466;-60
2022/03/23 07:15:31;;;;;;;105.80;64.00;;;;;;;7.72;47.96;100928.48;109035;1278;138347;-60
2022/03/23 07:17:59;;;;;;;106.30;65.50;;;;;;;7.83;47.64;100930.10;109089;1279;22436;-60
2022/03/23 07:20:28;;;;;;;115.40;73.50;;;;;;;7.93;47.42;100929.06;109099;1278;22427;-60
2022/03/23 07:22:57;;;;;;;103.80;66.80;;;;;;;8.04;47.22;100927.30;109006;1278;137953;-60
2022/03/23 07:25:25;;;;;;;112.60;69.70;;;;;;;8.16;46.62;100924.72;109109;1277;23626;-60
2022/03/23 07:27:54;;;;;;;118.10;71.30;;;;;;;8.28;46.85;100921.75;108980;1278;137900;-61
2022/03/23 07:30:23;;;;;;;122.80;77.60;;;;;;;8.40;46.68;100920.73;109017;1278;23290;-59
2022/03/23 07:32:53;;;;;;;123.40;75.60;;;;;;;8.49;46.54;100919.44;109131;1278;22460;-59
2022/03/23 07:35:21;;;;;;;130.20;77.80;;;;;;;8.60;46.55;100923.48;109002;1278;137311;-59
2022/03/23 07:37:49;;;;;;;113.70;72.40;;;;;;;8.70;46.57;100922.21;109084;1278;22447;-59
2022/03/23 07:40:17;;;;;;;113.20;71.30;;;;;;;8.81;46.13;100922.15;108999;1278;138315;-60
2022/03/23 07:42:45;;;;;;;113.50;71.20;;;;;;;8.90;45.51;100920.71;109065;1278;22443;-60
2022/03/23 07:45:14;;;;;;;113.40;71.10;;;;;;;8.98;45.23;100921.35;108998;1278;138464;-59
2022/03/23 07:47:44;;;;;;;109.70;69.80;;;;;;;9.09;44.86;100922.50;109063;1278;22442;-60
2022/03/23 07:50:13;;;;;;;108.60;66.90;;;;;;;9.24;44.34;100921.53;109082;1278;22408;-59
2022/03/23 07:52:41;;;;;;;109.50;71.40;;;;;;;9.39;44.41;100919.24;108991;1279;138980;-59
2022/03/23 07:55:09;;;;;;;126.10;78.40;;;;;;;9.52;44.32;100913.65;109087;1278;22281;-60
2022/03/23 07:57:38;;;;;;;121.20;79.60;;;;;;;9.69;43.51;100913.99;108983;1280;138209;-59
2022/03/23 08:00:07;;;;;;;121.50;80.50;;;;;;;9.85;43.16;100911.12;109090;1279;22433;-60
2022/03/23 08:02:40;;;;;;;120.30;79.70;;;;;;;9.99;43.14;100905.59;109145;1278;22559;-59
2022/03/23 08:05:09;;;;;;;125.70;81.60;;;;;;;10.11;43.15;100902.52;108987;1278;138805;-58
2022/03/23 08:07:38;;;;;;;129.60;76.70;;;;;;;10.20;42.60;100898.63;109072;1278;22407;-59
2022/03/23 08:10:09;;;;;;;138.90;81.80;;;;;;;10.31;42.10;100896.02;108997;1278;139633;-59
2022/03/23 08:12:57;;;;;;;129.10;79.40;;;;;;;10.47;41.79;100895.80;109069;1279;22522;-59
2022/03/23 08:15:25;;;;;;;118.90;74.10;;;;;;;10.58;41.99;100893.84;108980;1279;138872;-59
2022/03/23 08:18:15;;;;;;;;;;;;;;;10.68;41.75;100891.77;109119;1278;22525;-59
2022/03/23 08:20:43;;;;;;;117.70;70.20;;;;;;;10.77;41.57;100889.23;109111;1278;22790;-60
2022/03/23 08:23:32;;;;;;;122.60;69.80;;;;;;;10.86;41.55;100891.70;109001;1279;138161;-60
2022/03/23 08:26:10;;;;;;;121.10;72.90;;;;;;;10.94;41.49;100887.92;109117;1278;22484;-60
2022/03/23 08:28:39;;;;;;;117.70;73.70;;;;;;;11.04;40.91;100888.54;108997;1279;139592;-60
2022/03/23 08:31:07;;;;;;;113.60;70.70;;;;;;;11.13;40.97;100884.89;109100;1278;22275;-60
2022/03/23 08:33:38;;;;;;;118.30;70.60;;;;;;;11.21;40.96;100878.77;108982;1280;137831;-60
2022/03/23 08:36:07;;;;;;;103.70;62.40;;;;;;;11.29;40.69;100878.74;107342;1278;26842;-59
2022/03/23 08:38:36;;;;;;;113.70;70.90;;;;;;;11.40;40.21;100875.45;109099;1278;22232;-60
2022/03/23 08:41:04;;;;;;;100.70;62.80;;;;;;;11.53;39.95;100870.73;108953;1279;138543;-60
2022/03/23 08:43:33;;;;;;;97.00;62.00;;;;;;;11.67;39.81;100869.48;109072;1279;22439;-60
2022/03/23 08:46:02;;;;;;;94.00;61.00;;;;;;;11.79;39.25;100869.01;108996;1278;138917;-59
2022/03/23 08:48:31;;;;;;;82.70;52.80;;;;;;;11.92;38.93;100866.79;109086;1279;22249;-60
2022/03/23 08:51:00;;;;;;;92.50;50.10;;;;;;;12.06;38.33;100858.24;109078;1278;22278;-60
2022/03/23 08:53:30;;;;;;;84.50;51.80;;;;;;;12.18;38.50;100857.70;108951;1279;137681;-60
2022/03/23 08:55:59;;;;;;;78.50;49.30;;;;;;;12.27;38.25;100852.21;109096;1277;22437;-60
2022/03/23 08:58:29;;;;;;;75.00;45.00;;;;;;;12.38;37.67;100852.25;108965;1279;137714;-60
2022/03/23 09:00:58;;;;;;;82.40;47.30;;;;;;;12.49;37.63;100844.67;109107;1278;22495;-60
2022/03/23 09:03:26;;;;;;;60.30;38.60;;;;;;;12.65;36.84;100842.70;108944;1279;137789;-60
2022/03/23 09:05:55;;;;;;;72.90;44.80;;;;;;;12.82;36.64;100839.80;109109;1278;22514;-60
2022/03/23 09:08:25;;;;;;;72.30;43.10;;;;;;;12.96;36.41;100837.59;109071;1279;22562;-60
2022/03/23 09:10:55;;;;;;;61.40;37.80;;;;;;;13.06;36.25;100837.67;108967;1279;138908;-60
2022/03/23 09:13:30;;;;;;;47.60;28.80;;;;;;;13.18;36.12;100831.77;109114;1279;22440;-60
2022/03/23 09:15:59;;;;;;;32.20;19.60;;;;;;;13.30;35.78;100827.42;108982;1278;138256;-60
2022/03/23 09:18:45;;;;;;;38.00;20.90;;;;;;;13.45;35.45;100823.59;109063;1279;22537;-60
2022/03/23 09:21:13;;;;;;;30.80;17.50;;;;;;;13.55;35.26;100824.05;109035;1278;138008;-60
2022/03/23 09:23:43;;;;;;;18.90;8.50;;;;;;;13.61;35.29;100823.05;109073;1279;22460;-60
2022/03/23 09:26:31;;;;;;;50.50;28.60;;;;;;;13.65;35.07;100819.04;109066;1280;22438;-60
2022/03/23 09:29:00;;;;;;;50.80;32.20;;;;;;;13.71;34.88;100821.77;108942;1279;138177;-60
2022/03/23 09:31:30;;;;;;;49.60;31.40;;;;;;;13.75;34.79;100813.19;109073;1279;22636;-60
2022/03/23 09:34:02;;;;;;;49.00;31.00;;;;;;;13.75;34.91;100808.42;108933;1278;139342;-60
2022/03/23 09:39:18;;;;;;;64.10;38.20;;;;;;;13.79;34.57;100805.05;108959;1278;138561;-60
2022/03/23 09:41:46;;;;;;;64.60;39.60;;;;;;;13.82;34.40;100796.77;109047;1279;22475;-60
2022/03/23 09:44:15;;;;;;;62.60;40.20;;;;;;;13.85;34.57;100793.63;109077;1279;22499;-60
2022/03/23 09:46:43;;;;;;;70.60;39.70;;;;;;;13.90;34.67;100792.98;108985;1277;138041;-60
2022/03/23 09:49:11;;;;;;;69.50;40.60;;;;;;;13.94;34.63;100789.01;109061;1279;22451;-60
2022/03/23 09:51:40;;;;;;;48.20;30.10;;;;;;;13.97;34.42;100787.86;108957;1280;138010;-60
2022/03/23 09:54:08;;;;;;;50.90;29.10;;;;;;;14.01;34.56;100779.25;109057;1277;22275;-60
2022/03/23 09:56:36;;;;;;;56.60;32.80;;;;;;;14.05;34.36;100780.96;109105;1277;24989;-60
2022/03/23 09:59:06;;;;;;;57.60;36.20;;;;;;;14.07;34.20;100777.45;108962;1278;137929;-60
2022/03/23 10:01:35;;;;;;;73.90;42.60;;;;;;;14.07;34.33;100772.29;109120;1278;23567;-60
2022/03/23 10:04:06;;;;;;;97.90;57.10;;;;;;;14.04;34.47;100767.96;108972;1278;137855;-60
2022/03/23 10:06:55;;;;;;;108.90;61.70;;;;;;;14.03;34.47;100767.95;109069;1278;22513;-60
2022/03/23 10:09:27;;;;;;;103.90;60.40;;;;;;;14.03;34.50;100763.67;108949;1279;138861;-60
2022/03/23 10:12:22;;;;;;;108.10;58.10;;;;;;;14.07;34.42;100761.94;109073;1278;22457;-60
2022/03/23 10:15:12;;;;;;;103.30;62.30;;;;;;;14.12;34.34;100752.64;109071;1278;22437;-60
2022/03/23 10:18:19;;;;;;;60.10;39.10;;;;;;;14.12;34.18;100754.02;108989;1278;138303;-60
2022/03/23 10:21:08;;;;;;;72.10;43.30;;;;;;;14.14;34.38;100749.14;109101;1278;22452;-60
2022/03/23 10:23:36;;;;;;;106.70;55.00;;;;;;;14.13;34.08;100744.48;108962;1280;139631;-60
2022/03/23 10:26:14;;;;;;;113.50;66.80;;;;;;;14.13;34.41;100743.22;109092;1278;22416;-60
2022/03/23 10:28:59;;;;;;;65.00;39.80;;;;;;;14.15;34.25;100738.64;108911;1278;138986;-60
2022/03/23 10:31:28;;;;;;;50.50;28.10;;;;;;;14.18;34.53;100732.69;109134;1277;22258;-60
2022/03/23 10:34:08;;;;;;;57.60;39.70;;;;;;;14.19;34.52;100731.83;108957;1278;139088;-60
2022/03/23 10:36:49;;;;;;;70.10;43.30;;;;;;;14.21;34.30;100725.29;109108;1278;22474;-60
2022/03/23 10:39:18;;;;;;;62.50;39.40;;;;;;;14.21;34.37;100722.05;109064;1279;23107;-60
2022/03/23 10:42:04;;;;;;;59.10;40.60;;;;;;;14.22;34.59;100720.10;108971;1278;137861;-60
2022/03/23 10:44:32;;;;;;;65.80;40.50;;;;;;;14.24;34.73;100712.20;109079;1278;23032;-60
2022/03/23 10:47:01;;;;;;;64.00;40.50;;;;;;;14.28;34.61;100703.36;105558;1279;139526;-59
2022/03/23 10:49:31;;;;;;;64.50;41.50;;;;;;;14.37;34.85;100703.92;109106;1278;22522;-60
2022/03/23 10:52:13;;;;;;;74.40;45.30;;;;;;;14.46;34.60;100703.30;108954;1278;140019;-60
2022/03/23 10:55:03;;;;;;;71.50;45.00;;;;;;;14.52;34.38;100689.66;109098;1278;23148;-60
2022/03/23 10:57:43;;;;;;;78.50;50.40;;;;;;;14.56;34.55;100685.27;108896;1280;138961;-60
2022/03/23 11:00:16;;;;;;;73.40;48.90;;;;;;;14.61;34.23;100680.92;109005;1278;22544;-60
2022/03/23 11:02:48;;;;;;;76.40;45.20;;;;;;;14.68;34.05;100677.52;109052;1278;23190;-60
2022/03/23 11:05:32;;;;;;;81.50;52.10;;;;;;;14.71;33.78;100673.48;108966;1278;138134;-60
2022/03/23 11:08:27;;;;;;;80.90;50.70;;;;;;;14.75;33.76;100671.16;109104;1277;23184;-60
2022/03/23 11:16:44;;;;;;;79.00;48.00;;;;;;;14.81;33.86;100655.77;108981;1277;139501;-60
2022/03/23 11:19:18;;;;;;;74.50;49.10;;;;;;;14.81;33.92;100653.46;109059;1279;22541;-60
2022/03/23 11:22:14;;;;;;;81.00;49.80;;;;;;;14.81;33.77;100644.90;108954;1277;139961;-60
2022/03/23 11:24:46;;;;;;;85.70;52.50;;;;;;;14.81;33.63;100636.77;109058;1278;22452;-60
2022/03/23 11:27:28;;;;;;;79.80;45.50;;;;;;;14.82;33.60;100639.10;108949;1280;138125;-61
2022/03/23 11:29:57;;;;;;;66.90;41.50;;;;;;;14.85;33.77;100631.48;109016;1279;23528;-61
2022/03/23 11:32:28;;;;;;;75.90;44.40;;;;;;;14.86;33.69;100628.48;109070;1278;23280;-61
2022/03/23 11:34:58;;;;;;;76.80;44.90;;;;;;;14.87;33.43;100618.66;108904;1280;138460;-60
2022/03/23 11:37:28;;;;;;;72.70;45.90;;;;;;;14.89;33.50;100616.20;109009;1281;22448;-60
2022/03/23 11:39:56;;;;;;;74.10;44.80;;;;;;;14.90;33.53;100612.77;108979;1277;137859;-60
2022/03/23 11:42:24;;;;;;;72.20;45.40;;;;;;;14.92;33.48;100605.98;109096;1277;22443;-60
2022/03/23 11:44:54;;;;;;;75.80;47.00;;;;;;;14.94;33.48;100601.45;109063;1279;22453;-61